Time;durP1;ratioP1;P1;durP2;ratioP2;P2;SDS_P1;SDS_P2;PMS_P1;PMS_P2;Temp;Humidity;BMP_temperature;BMP_pressure;BME280_temperature;BME280_humidity;BME280_pressure;Samples;Min_cycle;Max_cycle;Signal;HPM_P1;HPM_P2
2021/08/04 00:00:24;;;;;;;13.52;7.25;;;;;;;;;;5005368;28;20054;-80
2021/08/04 00:02:49;;;;;;;14.38;6.20;;;;;;;;;;4955425;28;20046;-80
2021/08/04 00:05:15;;;;;;;16.92;6.90;;;;;;;;;;4984932;28;20041;-79
2021/08/04 00:07:41;;;;;;;15.02;6.18;;;;;;;;;;4971910;28;20042;-79
2021/08/04 00:10:07;;;;;;;12.95;5.95;;;;;;;;;;4969967;28;20675;-78
2021/08/04 00:12:32;;;;;;;28.10;6.53;;;;;;;;;;4987971;28;20121;-80
2021/08/04 00:14:58;;;;;;;14.38;5.45;;;;;;;;;;4986049;28;20121;-79
2021/08/04 00:17:23;;;;;;;17.27;6.97;;;;;;;;;;4972139;28;20484;-78
2021/08/04 00:19:49;;;;;;;13.93;6.40;;;;;;;;;;4986650;28;20034;-79
2021/08/04 00:22:15;;;;;;;13.98;5.88;;;;;;;;;;4969777;28;20034;-79
2021/08/04 00:24:40;;;;;;;16.02;6.35;;;;;;;;;;4968906;28;20071;-78
2021/08/04 00:27:06;;;;;;;13.57;6.63;;;;;;;;;;4976839;28;20030;-79
2021/08/04 00:29:31;;;;;;;21.27;6.20;;;;;;;;;;4987734;28;20087;-79
2021/08/04 00:31:57;;;;;;;18.50;6.90;;;;;;;;;;4988318;28;20125;-80
2021/08/04 00:34:22;;;;;;;19.10;6.32;;;;;;;;;;4972082;28;20073;-79
2021/08/04 00:36:47;;;;;;;16.63;6.30;;;;;;;;;;4991417;28;20724;-79
2021/08/04 00:39:13;;;;;;;13.52;6.45;;;;;;;;;;4989900;28;20042;-79
2021/08/04 00:41:40;;;;;;;11.50;5.82;;;;;;;;;;4970585;28;20409;-79
2021/08/04 00:44:06;;;;;;;15.70;6.18;;;;;;;;;;4986233;28;20030;-78
2021/08/04 00:46:32;;;;;;;15.60;6.22;;;;;;;;;;4988686;28;20056;-79
2021/08/04 00:48:58;;;;;;;15.18;6.55;;;;;;;;;;4986365;28;20048;-79
2021/08/04 00:51:23;;;;;;;12.68;6.05;;;;;;;;;;4968775;28;20019;-78
2021/08/04 00:53:49;;;;;;;16.02;7.65;;;;;;;;;;4987444;28;20121;-79
2021/08/04 00:56:14;;;;;;;21.40;6.78;;;;;;;;;;4969366;28;20027;-80
2021/08/04 00:58:41;;;;;;;10.90;5.68;;;;;;;;;;4987952;28;20057;-78
2021/08/04 01:01:13;;;;;;;14.32;6.20;;;;;;;;;;4982952;28;20030;-78
2021/08/04 01:03:43;;;;;;;16.95;6.97;;;;;;;;;;5002930;28;20039;-78
2021/08/04 01:06:14;;;;;;;17.80;6.40;;;;;;;;;;4984355;28;20506;-78
2021/08/04 01:08:47;;;;;;;17.98;6.93;;;;;;;;;;4986202;28;20037;-80
2021/08/04 01:11:14;;;;;;;17.48;5.63;;;;;;;;;;4989523;28;20038;-77
2021/08/04 01:13:48;;;;;;;14.68;5.85;;;;;;;;;;4972757;28;20031;-78
2021/08/04 01:16:19;;;;;;;18.02;6.30;;;;;;;;;;4986100;28;20022;-79
2021/08/04 01:18:45;;;;;;;19.33;6.75;;;;;;;;;;4986678;28;20030;-78
2021/08/04 01:21:12;;;;;;;15.07;6.43;;;;;;;;;;4997993;28;20454;-78
2021/08/04 01:24:26;;;;;;;18.67;6.03;;;;;;;;;;4973815;28;20030;-79
2021/08/04 01:26:54;;;;;;;11.95;5.70;;;;;;;;;;4955851;28;20493;-79
2021/08/04 01:29:23;;;;;;;13.68;5.93;;;;;;;;;;4983303;28;20025;-79
2021/08/04 01:31:50;;;;;;;15.75;6.43;;;;;;;;;;4986852;28;20502;-79
2021/08/04 01:34:19;;;;;;;13.70;6.65;;;;;;;;;;4983394;28;20387;-79
2021/08/04 01:36:45;;;;;;;14.82;5.85;;;;;;;;;;4981876;28;20022;-79
2021/08/04 01:39:12;;;;;;;18.27;6.40;;;;;;;;;;4984602;28;20038;-79
2021/08/04 01:41:40;;;;;;;12.68;5.43;;;;;;;;;;4985642;28;20524;-78
2021/08/04 01:44:07;;;;;;;13.25;5.65;;;;;;;;;;4983261;28;20030;-78
2021/08/04 01:46:33;;;;;;;10.40;5.25;;;;;;;;;;4988151;28;20049;-79
2021/08/04 01:49:01;;;;;;;13.90;5.78;;;;;;;;;;4968689;28;20034;-80
2021/08/04 01:51:28;;;;;;;13.40;5.40;;;;;;;;;;4984136;28;20604;-80
2021/08/04 01:53:54;;;;;;;13.50;5.88;;;;;;;;;;4983643;28;20721;-80
2021/08/04 01:56:20;;;;;;;14.15;5.93;;;;;;;;;;4978508;28;20042;-78
2021/08/04 01:58:46;;;;;;;13.40;6.25;;;;;;;;;;4971925;28;20045;-80
2021/08/04 02:01:11;;;;;;;16.20;5.85;;;;;;;;;;4989799;28;20057;-79
2021/08/04 02:03:38;;;;;;;12.38;5.75;;;;;;;;;;4985682;28;20054;-80
2021/08/04 02:06:14;;;;;;;12.40;5.28;;;;;;;;;;4984015;28;20026;-78
2021/08/04 02:08:49;;;;;;;14.15;5.43;;;;;;;;;;4985577;28;20408;-80
2021/08/04 02:11:24;;;;;;;15.57;5.97;;;;;;;;;;4983341;28;20416;-79
2021/08/04 02:14:01;;;;;;;17.65;5.82;;;;;;;;;;4981834;28;20058;-80
2021/08/04 02:16:32;;;;;;;13.15;5.03;;;;;;;;;;4994666;28;20093;-79
2021/08/04 02:19:32;;;;;;;11.07;5.15;;;;;;;;;;5000200;28;20498;-80
2021/08/04 02:22:11;;;;;;;10.60;5.38;;;;;;;;;;4996823;28;20400;-79
2021/08/04 02:24:43;;;;;;;16.30;5.47;;;;;;;;;;4984333;28;20040;-78
2021/08/04 02:27:08;;;;;;;14.30;5.20;;;;;;;;;;4984643;28;20045;-78
2021/08/04 02:29:39;;;;;;;10.18;4.82;;;;;;;;;;4980682;28;20494;-79
2021/08/04 02:32:05;;;;;;;11.30;5.15;;;;;;;;;;4995584;28;20027;-80
2021/08/04 02:34:32;;;;;;;12.02;5.18;;;;;;;;;;4981202;28;20054;-80
2021/08/04 02:36:57;;;;;;;11.95;5.22;;;;;;;;;;4980018;28;20460;-78
2021/08/04 02:39:24;;;;;;;12.40;4.78;;;;;;;;;;4970149;28;20040;-78
2021/08/04 02:41:50;;;;;;;15.68;4.72;;;;;;;;;;4967888;28;20050;-79
2021/08/04 02:44:17;;;;;;;10.05;4.82;;;;;;;;;;4974735;28;20490;-79
2021/08/04 02:46:46;;;;;;;12.65;4.97;;;;;;;;;;4986101;28;20140;-78
2021/08/04 02:49:13;;;;;;;10.00;5.30;;;;;;;;;;4986256;28;20025;-78
2021/08/04 02:51:41;;;;;;;13.50;5.13;;;;;;;;;;4985729;28;20105;-78
2021/08/04 02:54:07;;;;;;;13.13;5.20;;;;;;;;;;4989875;28;20405;-78
2021/08/04 02:56:32;;;;;;;17.35;4.93;;;;;;;;;;4982281;28;20382;-80
2021/08/04 02:58:58;;;;;;;19.73;5.55;;;;;;;;;;4999697;28;20034;-78
2021/08/04 03:01:23;;;;;;;13.95;5.30;;;;;;;;;;4984502;28;20062;-79
2021/08/04 03:03:49;;;;;;;14.15;5.15;;;;;;;;;;4983405;28;20180;-77
2021/08/04 03:06:14;;;;;;;10.73;5.28;;;;;;;;;;4956803;28;20125;-78
2021/08/04 03:08:40;;;;;;;11.88;4.90;;;;;;;;;;4986200;28;20057;-78
2021/08/04 03:11:07;;;;;;;15.13;4.93;;;;;;;;;;4981996;28;20037;-78
2021/08/04 03:13:33;;;;;;;12.40;4.88;;;;;;;;;;4983631;28;20034;-77
2021/08/04 03:15:59;;;;;;;14.48;5.25;;;;;;;;;;4968563;28;20037;-78
2021/08/04 03:18:24;;;;;;;11.48;5.10;;;;;;;;;;4985259;28;20402;-78
2021/08/04 03:20:50;;;;;;;12.80;5.60;;;;;;;;;;4983926;28;20034;-78
2021/08/04 03:23:16;;;;;;;11.20;5.40;;;;;;;;;;4989465;28;20042;-78
2021/08/04 03:25:41;;;;;;;12.00;5.00;;;;;;;;;;4982147;28;20154;-78
2021/08/04 03:28:07;;;;;;;11.00;5.10;;;;;;;;;;4966852;28;20030;-78
2021/08/04 03:30:32;;;;;;;14.82;4.88;;;;;;;;;;4954452;28;20117;-78
2021/08/04 03:32:58;;;;;;;11.73;5.05;;;;;;;;;;4970385;28;20054;-78
2021/08/04 03:35:23;;;;;;;11.68;4.78;;;;;;;;;;4986556;28;20027;-78
2021/08/04 03:37:49;;;;;;;12.50;5.05;;;;;;;;;;4985130;28;20058;-78
2021/08/04 03:40:14;;;;;;;12.20;5.72;;;;;;;;;;4955979;28;20037;-78
2021/08/04 03:42:40;;;;;;;11.07;4.88;;;;;;;;;;4986262;28;20092;-78
2021/08/04 03:45:06;;;;;;;11.05;4.85;;;;;;;;;;4980545;28;20460;-78
2021/08/04 03:47:32;;;;;;;14.63;5.03;;;;;;;;;;4984842;28;20731;-78
2021/08/04 03:49:57;;;;;;;14.05;5.65;;;;;;;;;;4972885;28;20033;-78
2021/08/04 03:52:23;;;;;;;11.52;4.68;;;;;;;;;;4970472;28;20074;-78
2021/08/04 03:54:48;;;;;;;12.82;5.22;;;;;;;;;;4988584;28;20027;-77
2021/08/04 03:57:14;;;;;;;12.05;4.68;;;;;;;;;;4969113;28;20113;-78
2021/08/04 03:59:40;;;;;;;13.60;5.10;;;;;;;;;;4965461;28;20031;-78
2021/08/04 04:02:06;;;;;;;13.82;5.88;;;;;;;;;;4989260;28;20045;-78
2021/08/04 04:04:32;;;;;;;11.40;5.20;;;;;;;;;;4991574;28;20038;-78
2021/08/04 04:06:57;;;;;;;15.45;5.28;;;;;;;;;;4964665;28;20050;-78
2021/08/04 04:09:23;;;;;;;11.32;4.85;;;;;;;;;;4990294;28;20030;-79
2021/08/04 04:11:48;;;;;;;16.48;5.70;;;;;;;;;;4996619;28;20045;-78
2021/08/04 04:14:14;;;;;;;14.88;4.60;;;;;;;;;;4981607;28;20030;-78
2021/08/04 04:16:39;;;;;;;10.05;4.65;;;;;;;;;;4982524;28;20106;-79
2021/08/04 04:19:07;;;;;;;10.85;5.07;;;;;;;;;;4961374;28;20402;-79
2021/08/04 04:21:32;;;;;;;11.57;5.45;;;;;;;;;;4974143;28;20027;-79
2021/08/04 04:23:58;;;;;;;14.43;5.28;;;;;;;;;;4973476;28;20571;-80
2021/08/04 04:26:23;;;;;;;10.38;5.10;;;;;;;;;;4968047;28;20588;-78
2021/08/04 04:28:49;;;;;;;13.15;4.88;;;;;;;;;;4957533;28;20061;-77
2021/08/04 04:31:14;;;;;;;13.50;5.65;;;;;;;;;;4993461;28;20172;-79
2021/08/04 04:33:40;;;;;;;9.95;4.90;;;;;;;;;;4970350;28;20097;-78
2021/08/04 04:36:05;;;;;;;13.95;5.22;;;;;;;;;;4967714;28;20137;-78
2021/08/04 04:38:30;;;;;;;22.05;7.65;;;;;;;;;;5002339;28;20034;-79
2021/08/04 04:40:56;;;;;;;12.88;5.78;;;;;;;;;;4967901;28;20042;-78
2021/08/04 04:43:21;;;;;;;14.20;5.60;;;;;;;;;;4983476;28;20034;-78
2021/08/04 04:45:48;;;;;;;13.68;5.50;;;;;;;;;;4974884;28;20116;-78
2021/08/04 04:48:13;;;;;;;10.80;4.35;;;;;;;;;;4992661;28;20042;-78
2021/08/04 04:50:39;;;;;;;13.77;5.03;;;;;;;;;;4974260;28;20080;-79
2021/08/04 04:53:04;;;;;;;15.98;5.50;;;;;;;;;;4982928;28;20458;-79
2021/08/04 04:55:30;;;;;;;12.38;5.30;;;;;;;;;;4967373;28;20038;-80
2021/08/04 04:57:55;;;;;;;13.63;5.72;;;;;;;;;;4964394;28;20129;-80
2021/08/04 05:00:21;;;;;;;13.05;5.03;;;;;;;;;;4968376;28;20044;-80
2021/08/04 05:02:46;;;;;;;11.43;5.47;;;;;;;;;;4970206;28;20124;-78
2021/08/04 05:05:12;;;;;;;15.25;5.78;;;;;;;;;;4985944;28;20015;-78
2021/08/04 05:07:38;;;;;;;10.75;5.78;;;;;;;;;;4985701;28;20026;-79
2021/08/04 05:10:04;;;;;;;15.23;5.22;;;;;;;;;;4968210;28;20035;-79
2021/08/04 05:12:29;;;;;;;14.73;5.32;;;;;;;;;;5008425;28;20405;-78
2021/08/04 05:14:55;;;;;;;11.93;5.22;;;;;;;;;;4970521;28;20026;-79
2021/08/04 05:17:20;;;;;;;25.10;5.53;;;;;;;;;;4971919;28;20594;-78
2021/08/04 05:19:46;;;;;;;13.02;5.68;;;;;;;;;;4987972;28;20057;-78
2021/08/04 05:22:11;;;;;;;12.85;5.63;;;;;;;;;;4982614;28;20113;-79
2021/08/04 05:24:37;;;;;;;11.48;5.32;;;;;;;;;;4973075;28;20058;-77
2021/08/04 05:27:02;;;;;;;11.95;5.88;;;;;;;;;;4968905;28;20113;-79
2021/08/04 05:29:28;;;;;;;17.50;6.32;;;;;;;;;;5002656;28;20487;-77
2021/08/04 05:31:55;;;;;;;15.90;5.88;;;;;;;;;;4987876;28;20033;-77
2021/08/04 05:34:20;;;;;;;11.05;5.50;;;;;;;;;;4985661;28;20030;-78
2021/08/04 05:36:45;;;;;;;15.57;5.68;;;;;;;;;;4983769;28;20045;-77
2021/08/04 05:39:11;;;;;;;12.23;5.68;;;;;;;;;;4985731;28;20072;-79
2021/08/04 05:41:39;;;;;;;13.70;5.07;;;;;;;;;;4971569;28;20031;-80
2021/08/04 05:44:05;;;;;;;12.75;5.47;;;;;;;;;;4984467;28;20029;-79
2021/08/04 05:46:30;;;;;;;18.98;6.13;;;;;;;;;;4984505;28;20049;-80
2021/08/04 05:48:56;;;;;;;12.38;5.53;;;;;;;;;;4971765;28;20045;-79
2021/08/04 05:51:21;;;;;;;10.63;5.70;;;;;;;;;;4968623;28;20558;-79
2021/08/04 05:53:47;;;;;;;17.88;5.40;;;;;;;;;;4984930;28;20117;-79
2021/08/04 05:56:12;;;;;;;16.35;5.90;;;;;;;;;;4987692;28;20069;-79
2021/08/04 05:58:38;;;;;;;21.42;6.50;;;;;;;;;;4987703;28;20033;-79
2021/08/04 06:01:03;;;;;;;11.35;5.53;;;;;;;;;;4994439;28;20042;-78
2021/08/04 06:03:29;;;;;;;19.55;6.45;;;;;;;;;;4988592;28;20080;-79
2021/08/04 06:05:55;;;;;;;13.20;6.38;;;;;;;;;;4998782;28;20557;-79
2021/08/04 06:08:20;;;;;;;12.68;5.68;;;;;;;;;;4984583;28;20749;-79
2021/08/04 06:10:46;;;;;;;17.92;6.25;;;;;;;;;;4970691;28;20514;-79
2021/08/04 06:13:11;;;;;;;14.68;6.32;;;;;;;;;;4982983;28;20740;-79
2021/08/04 06:15:37;;;;;;;15.20;5.93;;;;;;;;;;4993278;28;20042;-79
2021/08/04 06:18:03;;;;;;;10.93;5.00;;;;;;;;;;4981543;28;20026;-78
2021/08/04 06:20:28;;;;;;;22.27;5.82;;;;;;;;;;4989374;28;20026;-78
2021/08/04 06:22:54;;;;;;;17.30;5.97;;;;;;;;;;4996670;28;20507;-79
2021/08/04 06:25:19;;;;;;;10.55;4.68;;;;;;;;;;4975975;28;20042;-79
2021/08/04 06:27:45;;;;;;;14.68;5.95;;;;;;;;;;4980971;28;20038;-78
2021/08/04 06:30:10;;;;;;;13.15;6.40;;;;;;;;;;4981268;28;20109;-79
2021/08/04 06:32:36;;;;;;;12.88;5.00;;;;;;;;;;4988638;28;20030;-79
2021/08/04 06:35:02;;;;;;;9.23;4.55;;;;;;;;;;5001474;28;20038;-79
2021/08/04 06:37:27;;;;;;;10.52;4.82;;;;;;;;;;4975931;28;20030;-79
2021/08/04 06:39:53;;;;;;;15.98;5.75;;;;;;;;;;4975454;28;20485;-79
2021/08/04 06:42:19;;;;;;;15.48;5.97;;;;;;;;;;4996575;28;20811;-79
2021/08/04 06:44:44;;;;;;;14.95;5.10;;;;;;;;;;4994742;28;20535;-79
2021/08/04 06:47:10;;;;;;;10.95;5.88;;;;;;;;;;4976080;28;20045;-79
2021/08/04 06:49:36;;;;;;;13.43;5.55;;;;;;;;;;4989757;28;20026;-78
2021/08/04 06:52:01;;;;;;;14.43;5.60;;;;;;;;;;4982424;28;20496;-79
2021/08/04 06:54:27;;;;;;;13.13;5.80;;;;;;;;;;4977168;28;20093;-79
2021/08/04 06:56:52;;;;;;;13.25;5.57;;;;;;;;;;4979738;28;20161;-78
2021/08/04 06:59:18;;;;;;;16.48;6.43;;;;;;;;;;4984249;28;20394;-80
2021/08/04 07:01:47;;;;;;;13.30;5.35;;;;;;;;;;4986486;28;20057;-78
2021/08/04 07:04:13;;;;;;;18.38;5.90;;;;;;;;;;4983433;28;20109;-79
2021/08/04 07:06:49;;;;;;;11.88;5.43;;;;;;;;;;4995259;28;20561;-79
2021/08/04 07:09:14;;;;;;;13.27;5.85;;;;;;;;;;4984316;28;20038;-79
2021/08/04 07:11:39;;;;;;;13.68;5.85;;;;;;;;;;4954992;28;20528;-79
2021/08/04 07:14:05;;;;;;;23.27;6.05;;;;;;;;;;4982787;28;20751;-80
2021/08/04 07:16:30;;;;;;;14.00;5.82;;;;;;;;;;4985266;28;20062;-80
2021/08/04 07:18:56;;;;;;;14.90;6.00;;;;;;;;;;4982924;28;20041;-78
2021/08/04 07:21:21;;;;;;;16.10;6.00;;;;;;;;;;4988134;28;20120;-78
2021/08/04 07:23:47;;;;;;;12.95;6.00;;;;;;;;;;4951670;28;20030;-78
2021/08/04 07:26:13;;;;;;;19.88;6.28;;;;;;;;;;4984011;28;20030;-78
2021/08/04 07:28:39;;;;;;;22.65;8.35;;;;;;;;;;4982815;28;20130;-78
2021/08/04 07:31:04;;;;;;;19.00;7.28;;;;;;;;;;4981612;28;20383;-78
2021/08/04 07:33:30;;;;;;;18.85;6.95;;;;;;;;;;4987001;28;20051;-79
2021/08/04 07:35:56;;;;;;;16.50;7.45;;;;;;;;;;4984840;28;20524;-79
2021/08/04 07:38:21;;;;;;;22.52;7.68;;;;;;;;;;4983877;28;20061;-79
2021/08/04 07:40:47;;;;;;;17.00;7.38;;;;;;;;;;4989767;28;20494;-78
2021/08/04 07:43:12;;;;;;;17.40;7.10;;;;;;;;;;4969159;28;20044;-78
2021/08/04 07:45:38;;;;;;;21.55;7.75;;;;;;;;;;4981934;28;20042;-79
2021/08/04 07:48:04;;;;;;;30.63;7.25;;;;;;;;;;4969280;28;20090;-79
2021/08/04 07:50:29;;;;;;;26.50;6.70;;;;;;;;;;4989016;28;20026;-79
2021/08/04 07:52:55;;;;;;;22.13;7.75;;;;;;;;;;4972996;28;20143;-78
2021/08/04 07:55:20;;;;;;;16.20;6.95;;;;;;;;;;4981827;28;20561;-79
2021/08/04 07:57:46;;;;;;;19.35;7.40;;;;;;;;;;4978276;28;20121;-78
2021/08/04 08:00:12;;;;;;;22.52;7.28;;;;;;;;;;4998043;28;20036;-78
2021/08/04 08:02:37;;;;;;;15.52;6.57;;;;;;;;;;4984955;28;20144;-78
2021/08/04 08:05:03;;;;;;;18.80;6.70;;;;;;;;;;4971069;28;20030;-79
2021/08/04 08:07:29;;;;;;;14.80;6.90;;;;;;;;;;4994865;28;20033;-78
2021/08/04 08:09:54;;;;;;;18.75;6.78;;;;;;;;;;4997101;28;20015;-78
2021/08/04 08:12:20;;;;;;;17.17;7.70;;;;;;;;;;4989578;28;20038;-76
2021/08/04 08:14:45;;;;;;;21.40;8.00;;;;;;;;;;4957833;28;20480;-77
2021/08/04 08:17:11;;;;;;;16.05;7.10;;;;;;;;;;4986278;28;20092;-77
2021/08/04 08:19:38;;;;;;;18.90;6.57;;;;;;;;;;4981979;28;20082;-77
2021/08/04 08:22:04;;;;;;;16.50;6.82;;;;;;;;;;4989596;28;20096;-77
2021/08/04 08:24:29;;;;;;;17.85;7.35;;;;;;;;;;4996308;28;20029;-77
2021/08/04 08:26:55;;;;;;;19.10;6.75;;;;;;;;;;4980594;28;20042;-77
2021/08/04 08:29:21;;;;;;;20.35;7.22;;;;;;;;;;4989921;28;20034;-77
2021/08/04 08:31:46;;;;;;;16.88;7.30;;;;;;;;;;4998769;28;20053;-78
2021/08/04 08:34:12;;;;;;;20.98;6.53;;;;;;;;;;4987730;28;20034;-78
2021/08/04 08:36:38;;;;;;;16.05;6.57;;;;;;;;;;4985592;28;20034;-78
2021/08/04 08:39:09;;;;;;;20.27;6.93;;;;;;;;;;4990102;28;20041;-78
2021/08/04 08:41:35;;;;;;;17.42;6.63;;;;;;;;;;4990795;28;20042;-77
2021/08/04 08:44:00;;;;;;;18.70;6.28;;;;;;;;;;5009979;28;20655;-76
2021/08/04 08:46:31;;;;;;;18.58;6.15;;;;;;;;;;4967914;28;20055;-77
2021/08/04 08:48:58;;;;;;;15.80;6.80;;;;;;;;;;4988612;28;20066;-76
2021/08/04 08:51:25;;;;;;;25.80;7.30;;;;;;;;;;4988678;28;20046;-77
2021/08/04 08:53:52;;;;;;;20.27;8.23;;;;;;;;;;4994905;28;20130;-77
2021/08/04 08:56:18;;;;;;;20.35;7.72;;;;;;;;;;4980485;28;20517;-78
2021/08/04 08:58:48;;;;;;;28.55;8.70;;;;;;;;;;4986355;28;20033;-77
2021/08/04 09:01:13;;;;;;;24.92;8.07;;;;;;;;;;4969272;28;20968;-77
2021/08/04 09:03:39;;;;;;;26.63;9.27;;;;;;;;;;4988536;28;20088;-77
2021/08/04 09:06:05;;;;;;;21.15;8.15;;;;;;;;;;4968306;28;20038;-78
2021/08/04 09:08:34;;;;;;;22.08;7.80;;;;;;;;;;4984597;28;20137;-77
2021/08/04 09:11:28;;;;;;;19.80;7.80;;;;;;;;;;4995159;28;20022;-77
2021/08/04 09:14:05;;;;;;;25.13;8.90;;;;;;;;;;4999319;28;20471;-77
2021/08/04 09:16:33;;;;;;;25.80;8.65;;;;;;;;;;4987592;28;20066;-77
2021/08/04 09:18:59;;;;;;;22.85;8.70;;;;;;;;;;4972052;28;20042;-77
2021/08/04 09:21:24;;;;;;;20.02;7.82;;;;;;;;;;4993102;28;20045;-77
2021/08/04 09:23:52;;;;;;;20.70;7.90;;;;;;;;;;4970916;28;20039;-76
2021/08/04 09:26:19;;;;;;;21.45;8.10;;;;;;;;;;4997862;28;20038;-77
2021/08/04 09:29:03;;;;;;;22.90;7.75;;;;;;;;;;4989100;28;20038;-77
2021/08/04 09:31:41;;;;;;;24.90;7.57;;;;;;;;;;4989354;28;20531;-77
2021/08/04 09:34:26;;;;;;;21.52;7.82;;;;;;;;;;4993907;28;20731;-77
2021/08/04 09:37:20;;;;;;;28.50;8.02;;;;;;;;;;4990567;28;20026;-77
2021/08/04 09:39:58;;;;;;;30.55;8.10;;;;;;;;;;4993448;28;20056;-76
2021/08/04 09:42:45;;;;;;;19.80;7.35;;;;;;;;;;5007450;28;20377;-77
2021/08/04 09:45:12;;;;;;;23.80;7.90;;;;;;;;;;4994383;28;20041;-77
2021/08/04 09:47:53;;;;;;;20.20;7.55;;;;;;;;;;4995949;28;20042;-77
2021/08/04 09:50:19;;;;;;;19.17;7.95;;;;;;;;;;4979620;28;20041;-77
2021/08/04 09:52:55;;;;;;;18.08;8.00;;;;;;;;;;4996579;28;20033;-78
2021/08/04 09:55:21;;;;;;;22.60;7.13;;;;;;;;;;4989690;28;20045;-78
2021/08/04 09:57:49;;;;;;;22.23;6.97;;;;;;;;;;4988366;28;20037;-79
2021/08/04 10:00:16;;;;;;;19.60;7.03;;;;;;;;;;4993981;28;20030;-76
2021/08/04 10:02:44;;;;;;;23.27;6.85;;;;;;;;;;4995251;28;20527;-77
2021/08/04 10:05:21;;;;;;;25.23;6.80;;;;;;;;;;4997048;28;20066;-79
2021/08/04 10:08:08;;;;;;;16.25;7.07;;;;;;;;;;4991946;28;20089;-77
2021/08/04 10:10:45;;;;;;;13.63;6.25;;;;;;;;;;4991009;28;20109;-77
2021/08/04 10:13:16;;;;;;;18.10;6.30;;;;;;;;;;4971878;28;20517;-77
2021/08/04 10:15:44;;;;;;;12.27;5.77;;;;;;;;;;4988896;28;20529;-77
2021/08/04 10:18:16;;;;;;;13.10;5.97;;;;;;;;;;4988588;28;20121;-78
2021/08/04 10:20:42;;;;;;;;;;;;;;;;;;4981151;28;20026;-76
2021/08/04 10:23:13;;;;;;;13.77;5.53;;;;;;;;;;4992498;28;19913;-77
2021/08/04 10:25:38;;;;;;;15.57;6.30;;;;;;;;;;5000328;28;20026;-76
2021/08/04 10:28:05;;;;;;;20.67;6.03;;;;;;;;;;4993496;28;20042;-76
2021/08/04 10:30:31;;;;;;;13.20;6.13;;;;;;;;;;4993922;28;20058;-77
2021/08/04 10:32:57;;;;;;;15.13;5.95;;;;;;;;;;4980556;28;20093;-78
2021/08/04 10:35:23;;;;;;;10.30;5.38;;;;;;;;;;4994763;28;20185;-76
2021/08/04 10:37:50;;;;;;;14.23;6.68;;;;;;;;;;4996053;28;20026;-79
2021/08/04 10:40:16;;;;;;;13.18;5.57;;;;;;;;;;4987368;28;20493;-77
2021/08/04 10:42:45;;;;;;;12.63;5.32;;;;;;;;;;4996111;28;20508;-76
2021/08/04 10:45:22;;;;;;;13.70;5.68;;;;;;;;;;4990922;28;20037;-76
2021/08/04 10:47:52;;;;;;;13.75;6.47;;;;;;;;;;4985310;28;20154;-75
2021/08/04 10:50:17;;;;;;;13.93;5.95;;;;;;;;;;4983570;28;20042;-76
2021/08/04 10:52:58;;;;;;;16.48;5.90;;;;;;;;;;4976520;28;20035;-76
2021/08/04 10:55:25;;;;;;;22.25;6.75;;;;;;;;;;5000212;28;20117;-76
2021/08/04 10:58:10;;;;;;;27.58;7.60;;;;;;;;;;4988967;28;20031;-77
2021/08/04 11:00:36;;;;;;;20.50;6.80;;;;;;;;;;4988662;28;20083;-77
2021/08/04 11:03:29;;;;;;;23.02;6.45;;;;;;;;;;4991794;28;20038;-78
2021/08/04 11:06:04;;;;;;;17.98;6.15;;;;;;;;;;4996879;28;20069;-77
2021/08/04 11:08:29;;;;;;;16.85;6.20;;;;;;;;;;4993741;28;20121;-77
2021/08/04 11:10:55;;;;;;;15.38;6.60;;;;;;;;;;4991954;28;20121;-78
2021/08/04 11:13:45;;;;;;;14.77;6.35;;;;;;;;;;4981925;28;20041;-78
2021/08/04 11:16:25;;;;;;;24.98;5.97;;;;;;;;;;4987442;28;20034;-78
2021/08/04 11:19:07;;;;;;;15.65;5.63;;;;;;;;;;4999384;28;20045;-78
2021/08/04 11:21:33;;;;;;;14.80;5.67;;;;;;;;;;4997742;28;20052;-77
2021/08/04 11:23:59;;;;;;;10.77;5.47;;;;;;;;;;5005949;28;20636;-77
2021/08/04 11:26:37;;;;;;;13.02;6.32;;;;;;;;;;4992421;28;20117;-77
2021/08/04 11:29:07;;;;;;;15.55;6.28;;;;;;;;;;5011484;28;20565;-77
2021/08/04 11:31:33;;;;;;;17.92;6.53;;;;;;;;;;5002623;28;20460;-77
2021/08/04 11:34:29;;;;;;;15.05;5.90;;;;;;;;;;4990822;28;20120;-77
2021/08/04 11:37:02;;;;;;;11.82;4.78;;;;;;;;;;4985627;28;20056;-76
2021/08/04 11:39:28;;;;;;;16.35;6.10;;;;;;;;;;4998526;28;20040;-77
2021/08/04 11:41:53;;;;;;;15.45;5.20;;;;;;;;;;4987697;28;20037;-77
2021/08/04 11:44:27;;;;;;;18.10;5.15;;;;;;;;;;4979765;28;20030;-75
2021/08/04 11:46:57;;;;;;;14.05;5.30;;;;;;;;;;4990149;28;20054;-76
2021/08/04 11:49:37;;;;;;;12.02;5.10;;;;;;;;;;4988078;28;20093;-76
2021/08/04 11:52:11;;;;;;;14.65;5.45;;;;;;;;;;4988496;28;20034;-76
2021/08/04 11:54:40;;;;;;;13.35;5.60;;;;;;;;;;5005478;28;20147;-76
2021/08/04 11:57:08;;;;;;;16.00;5.90;;;;;;;;;;4991419;28;20110;-76
2021/08/04 12:00:06;;;;;;;19.55;6.65;;;;;;;;;;4989333;28;20022;-77
2021/08/04 12:02:34;;;;;;;15.38;6.55;;;;;;;;;;4992607;28;20132;-76
2021/08/04 12:05:00;;;;;;;17.73;7.15;;;;;;;;;;4987006;28;20563;-76
2021/08/04 12:07:27;;;;;;;15.73;7.22;;;;;;;;;;5014015;28;20041;-76
2021/08/04 12:09:54;;;;;;;25.27;7.40;;;;;;;;;;4977651;28;20034;-77
2021/08/04 12:12:22;;;;;;;15.45;6.55;;;;;;;;;;5005621;22;20112;-63
2021/08/04 12:14:48;;;;;;;19.27;7.53;;;;;;;;;;5004379;28;20033;-63
2021/08/04 12:17:31;;;;;;;18.45;7.68;;;;;;;;;;5012722;28;20022;-63
2021/08/04 12:19:56;;;;;;;;;;;;;;;;;;5006168;28;20036;-63
2021/08/04 12:22:23;;;;;;;21.50;6.88;;;;;;;;;;5007363;28;19917;-63
2021/08/04 12:24:56;;;;;;;17.70;6.88;;;;;;;;;;5007133;28;20029;-63
2021/08/04 12:27:51;;;;;;;20.80;7.45;;;;;;;;;;5006863;28;20025;-63
2021/08/04 12:30:30;;;;;;;17.52;7.47;;;;;;;;;;4998695;28;20045;-63
2021/08/04 12:33:14;;;;;;;19.52;7.88;;;;;;;;;;5009147;28;20041;-63
2021/08/04 12:36:02;;;;;;;15.38;7.43;;;;;;;;;;5003696;28;20035;-63
2021/08/04 12:38:30;;;;;;;18.42;7.35;;;;;;;;;;5001247;28;20021;-63
2021/08/04 12:40:57;;;;;;;22.95;7.78;;;;;;;;;;5005421;28;20380;-61
2021/08/04 12:43:29;;;;;;;19.17;7.38;;;;;;;;;;5004793;28;20022;-62
2021/08/04 12:45:57;;;;;;;21.08;7.03;;;;;;;;;;5009030;28;20048;-62
2021/08/04 12:48:33;;;;;;;20.73;7.53;;;;;;;;;;5000066;28;20049;-62
2021/08/04 12:51:00;;;;;;;17.45;7.15;;;;;;;;;;5001524;28;20052;-63
2021/08/04 12:53:31;;;;;;;12.30;6.15;;;;;;;;;;5004639;28;20033;-63
2021/08/04 12:56:17;;;;;;;17.40;6.47;;;;;;;;;;5003314;28;20112;-62
2021/08/04 12:59:02;;;;;;;15.35;6.25;;;;;;;;;;5000658;28;20045;-63
2021/08/04 13:01:48;;;;;;;15.30;6.13;;;;;;;;;;5001666;28;20026;-62
2021/08/04 13:04:31;;;;;;;14.77;7.00;;;;;;;;;;5003553;28;20404;-62
2021/08/04 13:07:00;;;;;;;16.52;6.93;;;;;;;;;;4997610;28;20536;-62
2021/08/04 13:09:27;;;;;;;23.65;7.57;;;;;;;;;;5011227;28;20322;-63
2021/08/04 13:12:16;;;;;;;17.08;6.45;;;;;;;;;;5007270;28;20034;-63
2021/08/04 13:15:26;;;;;;;14.50;6.53;;;;;;;;;;5008412;28;20065;-63
2021/08/04 13:17:58;;;;;;;16.40;6.25;;;;;;;;;;4998953;28;20042;-63
2021/08/04 13:20:31;;;;;;;19.38;6.75;;;;;;;;;;5001810;28;20022;-63
2021/08/04 13:23:07;;;;;;;17.55;7.40;;;;;;;;;;5003585;28;20121;-62
2021/08/04 13:25:43;;;;;;;12.82;5.80;;;;;;;;;;5002357;28;20040;-63
2021/08/04 13:28:14;;;;;;;11.85;6.20;;;;;;;;;;5001477;28;20037;-62
2021/08/04 13:30:56;;;;;;;12.00;6.35;;;;;;;;;;5001706;28;20052;-63
2021/08/04 13:33:26;;;;;;;11.07;5.57;;;;;;;;;;5004150;28;20091;-62
2021/08/04 13:35:54;;;;;;;14.27;5.85;;;;;;;;;;5006240;28;20037;-62
2021/08/04 13:38:20;;;;;;;14.60;6.45;;;;;;;;;;4996849;28;20014;-62
2021/08/04 13:40:46;;;;;;;15.35;6.07;;;;;;;;;;4996971;28;20033;-63
2021/08/04 13:43:12;;;;;;;12.38;5.43;;;;;;;;;;4999865;28;20045;-57
2021/08/04 13:45:38;;;;;;;11.30;6.18;;;;;;;;;;5001705;28;20037;-56
2021/08/04 13:48:04;;;;;;;12.13;5.57;;;;;;;;;;4997956;28;20034;-56
2021/08/04 13:50:29;;;;;;;13.25;5.32;;;;;;;;;;5000125;28;20469;-56
2021/08/04 13:52:57;;;;;;;15.68;6.25;;;;;;;;;;4994692;28;20037;-57
2021/08/04 13:55:25;;;;;;;14.60;6.05;;;;;;;;;;5004785;28;20508;-56
2021/08/04 13:57:51;;;;;;;12.90;6.28;;;;;;;;;;4999697;28;20303;-57
2021/08/04 14:00:19;;;;;;;18.40;6.72;;;;;;;;;;4999230;28;20065;-57
2021/08/04 14:02:45;;;;;;;14.05;6.38;;;;;;;;;;4996554;28;20113;-57
2021/08/04 14:05:13;;;;;;;11.00;6.30;;;;;;;;;;4999452;28;20129;-57
2021/08/04 14:07:39;;;;;;;20.92;6.50;;;;;;;;;;4999869;28;20552;-58
2021/08/04 14:10:06;;;;;;;12.88;5.40;;;;;;;;;;4999031;28;20038;-58
2021/08/04 14:12:33;;;;;;;11.82;5.65;;;;;;;;;;5003759;28;21459;-56
2021/08/04 14:14:58;;;;;;;11.60;5.25;;;;;;;;;;5000813;28;20034;-57
2021/08/04 14:17:27;;;;;;;14.38;5.13;;;;;;;;;;5002424;28;20524;-57
2021/08/04 14:19:53;;;;;;;14.13;5.45;;;;;;;;;;4995100;28;20046;-58
2021/08/04 14:22:19;;;;;;;9.52;4.20;;;;;;;;;;4995504;28;20032;-62
2021/08/04 14:24:46;;;;;;;12.63;4.00;;;;;;;;;;4997341;28;20413;-64
2021/08/04 14:27:11;;;;;;;8.20;3.92;;;;;;;;;;4994316;28;20031;-64
2021/08/04 14:29:37;;;;;;;15.10;4.43;;;;;;;;;;4996143;28;20068;-63
2021/08/04 14:32:03;;;;;;;13.13;4.07;;;;;;;;;;4992409;28;20116;-63
2021/08/04 14:34:30;;;;;;;9.32;4.35;;;;;;;;;;4994843;28;20033;-63
2021/08/04 14:36:56;;;;;;;9.35;4.80;;;;;;;;;;5001433;28;20325;-63
2021/08/04 14:39:21;;;;;;;9.80;4.45;;;;;;;;;;5008877;28;20038;-63